Time;durP1;ratioP1;P1;durP2;ratioP2;P2;SDS_P1;SDS_P2;PMS_P1;PMS_P2;Temp;Humidity;BMP_temperature;BMP_pressure;BME280_temperature;BME280_humidity;BME280_pressure;Samples;Min_cycle;Max_cycle;Signal;HPM_P1;HPM_P2
2023/12/17 00:01:43;;;;;;;0.98;0.90;;;;;;;0.53;100.00;102855.91;5066011;28;20135;-76
2023/12/17 00:04:08;;;;;;;4.15;3.95;;;;;;;0.57;100.00;102857.06;5067455;28;20109;-76
2023/12/17 00:06:36;;;;;;;0.73;0.73;;;;;;;0.29;100.00;102812.63;5067174;28;20036;-77
2023/12/17 00:09:02;;;;;;;1.63;1.52;;;;;;;0.49;100.00;102871.03;5048727;28;20044;-77
2023/12/17 00:11:27;;;;;;;5.22;4.93;;;;;;;0.03;100.00;102792.47;5063710;28;20044;-76
2023/12/17 00:13:53;;;;;;;4.00;3.80;;;;;;;0.39;100.00;102847.03;5037145;28;20484;-76
2023/12/17 00:16:18;;;;;;;0.40;0.40;;;;;;;0.62;100.00;102903.13;5044639;28;20052;-75
2023/12/17 00:18:43;;;;;;;1.77;1.67;;;;;;;0.15;100.00;102815.00;5066465;28;20094;-76
2023/12/17 00:21:09;;;;;;;2.78;2.63;;;;;;;0.79;100.00;102922.56;5075503;28;20064;-76
2023/12/17 00:23:34;;;;;;;0.50;0.50;;;;;;;0.02;100.00;102813.88;5065694;28;20136;-75
2023/12/17 00:26:00;;;;;;;0.30;0.30;;;;;;;-0.25;100.00;102779.88;5069187;28;20044;-75
2023/12/17 00:28:25;;;;;;;5.22;4.85;;;;;;;0.09;100.00;102809.31;5069536;28;20028;-75
2023/12/17 00:30:51;;;;;;;2.60;2.47;;;;;;;0.20;100.00;102824.00;5063004;28;20039;-75
2023/12/17 00:33:17;;;;;;;1.33;1.27;;;;;;;0.83;100.00;102932.38;5065533;28;20396;-75
2023/12/17 00:35:42;;;;;;;0.63;0.55;;;;;;;0.81;100.00;102943.38;5065832;28;20075;-75
2023/12/17 00:38:08;;;;;;;0.80;0.80;;;;;;;0.15;100.00;102848.56;5050155;28;20703;-76
2023/12/17 00:40:33;;;;;;;0.45;0.45;;;;;;;0.13;100.00;102828.56;5063682;28;20403;-75
2023/12/17 00:42:59;;;;;;;2.30;2.20;;;;;;;0.81;100.00;102951.13;5062659;28;20536;-75
2023/12/17 00:45:24;;;;;;;1.30;1.20;;;;;;;0.02;100.00;102843.16;5060366;28;20492;-75
2023/12/17 00:47:50;;;;;;;3.10;3.00;;;;;;;0.20;100.00;102859.25;5051562;28;20072;-73
2023/12/17 00:50:16;;;;;;;0.50;0.50;;;;;;;0.63;100.00;102948.88;5065040;28;20138;-75
2023/12/17 00:52:42;;;;;;;0.80;0.75;;;;;;;0.70;100.00;102970.94;5047487;28;20079;-75
2023/12/17 00:55:07;;;;;;;3.83;3.63;;;;;;;0.01;100.00;102850.78;5067070;28;20119;-75
2023/12/17 00:57:33;;;;;;;1.27;1.27;;;;;;;0.14;100.00;102867.41;5067857;28;20410;-76
2023/12/17 00:59:58;;;;;;;0.40;0.40;;;;;;;0.59;100.00;102954.56;5060460;28;20041;-76
2023/12/17 01:02:24;;;;;;;0.50;0.40;;;;;;;0.62;100.00;102949.66;5061576;28;20152;-75
2023/12/17 01:04:49;;;;;;;0.40;0.40;;;;;;;0.57;100.00;102960.41;5065062;28;20448;-76
2023/12/17 01:07:15;;;;;;;0.50;0.50;;;;;;;-0.08;100.00;102856.09;5070347;28;20659;-74
2023/12/17 01:09:40;;;;;;;3.42;3.22;;;;;;;0.02;100.00;102868.06;5061064;28;20052;-75
2023/12/17 01:12:06;;;;;;;0.45;0.45;;;;;;;0.32;100.00;102917.03;5068980;28;20044;-75
2023/12/17 01:14:34;;;;;;;0.40;0.40;;;;;;;0.59;100.00;102959.75;5059985;28;20041;-74
2023/12/17 01:17:04;;;;;;;0.52;0.52;;;;;;;0.61;100.00;102954.72;5044001;28;20854;-76
2023/12/17 01:19:30;;;;;;;0.50;0.50;;;;;;;0.02;100.00;102875.81;5071361;28;20047;-76
2023/12/17 01:21:57;;;;;;;0.80;0.80;;;;;;;0.47;100.00;102931.97;5057604;28;20036;-75
2023/12/17 01:24:23;;;;;;;0.30;0.30;;;;;;;0.61;100.00;102960.78;5067446;28;20064;-75
2023/12/17 01:26:48;;;;;;;0.40;0.40;;;;;;;0.61;100.00;102953.03;5072421;28;20121;-77
2023/12/17 01:29:14;;;;;;;1.38;1.27;;;;;;;-0.29;100.00;102832.00;5064913;28;20052;-76
2023/12/17 01:31:39;;;;;;;3.33;3.13;;;;;;;0.27;100.00;102941.59;5044515;28;20868;-75
2023/12/17 01:34:06;;;;;;;0.43;0.43;;;;;;;0.44;100.00;102968.81;5066545;28;20060;-76
2023/12/17 01:36:34;;;;;;;1.05;1.05;;;;;;;-0.02;100.00;102848.88;5068891;28;20128;-76
2023/12/17 01:38:59;;;;;;;0.75;0.75;;;;;;;0.12;100.00;102860.31;5068061;28;20508;-76
2023/12/17 01:41:25;;;;;;;0.95;0.95;;;;;;;-0.09;100.00;102841.41;5051100;28;20087;-75
2023/12/17 01:43:50;;;;;;;8.98;8.40;;;;;;;0.30;100.00;102907.38;5047051;28;20036;-74
2023/12/17 01:46:16;;;;;;;3.78;3.63;;;;;;;0.10;100.00;102869.63;5056513;28;20485;-74
2023/12/17 01:48:41;;;;;;;6.32;5.97;;;;;;;-0.04;100.00;102846.16;5064482;28;20052;-73
2023/12/17 01:51:08;;;;;;;0.82;0.82;;;;;;;0.75;100.00;102948.97;5061614;28;20532;-77
2023/12/17 01:53:34;;;;;;;2.75;2.63;;;;;;;0.35;100.00;102937.06;5064865;28;20131;-76
2023/12/17 01:56:00;;;;;;;0.40;0.40;;;;;;;0.63;100.00;102946.31;5068916;28;20522;-76
2023/12/17 01:58:27;;;;;;;1.17;0.82;;;;;;;-0.02;100.00;102838.53;5066748;28;20479;-74
2023/12/17 02:00:54;;;;;;;0.30;0.30;;;;;;;-0.23;100.00;102802.44;5069569;28;20036;-77
2023/12/17 02:03:19;;;;;;;0.82;0.52;;;;;;;0.46;100.00;102951.75;5051744;28;20049;-76
2023/12/17 02:05:48;;;;;;;0.50;0.50;;;;;;;0.61;100.00;102946.97;5065668;28;20047;-74
2023/12/17 02:08:14;;;;;;;0.43;0.43;;;;;;;0.58;100.00;102959.59;5071995;28;20123;-74
2023/12/17 02:10:40;;;;;;;1.05;1.05;;;;;;;0.43;100.00;102940.28;5071410;28;20074;-74
2023/12/17 02:13:09;;;;;;;0.63;0.63;;;;;;;0.20;100.00;102890.22;5069601;28;20024;-75
2023/12/17 02:15:38;;;;;;;1.77;1.67;;;;;;;0.37;100.00;102943.25;5067183;28;20036;-76
2023/12/17 02:18:04;;;;;;;3.28;3.08;;;;;;;0.58;100.00;102945.00;5068111;28;20056;-75
2023/12/17 02:20:30;;;;;;;1.95;1.85;;;;;;;0.34;100.00;102924.94;5068001;28;20872;-75
2023/12/17 02:23:01;;;;;;;2.67;2.58;;;;;;;0.45;100.00;102929.31;5067751;28;20036;-75
2023/12/17 02:25:27;;;;;;;1.33;1.30;;;;;;;-0.10;100.00;102837.00;5065315;28;20035;-75
2023/12/17 02:27:56;;;;;;;20.80;6.90;;;;;;;0.45;100.00;102923.25;5067175;28;20021;-75
2023/12/17 02:30:22;;;;;;;1.02;1.02;;;;;;;-0.08;100.00;102835.44;5068412;28;20149;-77
2023/12/17 02:32:47;;;;;;;2.95;2.75;;;;;;;0.25;100.00;102890.59;5069447;28;20052;-73
2023/12/17 02:35:13;;;;;;;0.50;0.50;;;;;;;0.07;100.00;102898.66;5069728;28;20059;-75
2023/12/17 02:37:38;;;;;;;2.55;2.45;;;;;;;-0.03;100.00;102847.94;5069796;28;20047;-77
2023/12/17 02:40:05;;;;;;;2.35;2.25;;;;;;;-0.17;100.00;102825.25;5070631;28;20040;-75
2023/12/17 02:42:30;;;;;;;0.45;0.45;;;;;;;0.31;100.00;102906.63;5066219;28;20508;-75
2023/12/17 02:44:55;;;;;;;2.60;1.63;;;;;;;-0.11;100.00;102820.63;5065673;28;20123;-75
2023/12/17 02:47:21;;;;;;;3.92;3.67;;;;;;;-0.05;100.00;102839.19;5067485;28;20052;-75
2023/12/17 02:49:46;;;;;;;0.50;0.50;;;;;;;0.27;100.00;102944.19;5077213;28;20097;-75
2023/12/17 02:52:12;;;;;;;0.32;0.32;;;;;;;-0.14;100.00;102894.28;5072287;28;20512;-75
2023/12/17 02:54:37;;;;;;;0.40;0.40;;;;;;;0.08;100.00;102915.03;5072269;28;20046;-76
2023/12/17 02:57:03;;;;;;;2.15;2.05;;;;;;;0.24;100.00;102932.72;5066548;28;20037;-76
2023/12/17 02:59:28;;;;;;;1.48;1.38;;;;;;;0.38;100.00;102937.31;5068226;28;20041;-77
2023/12/17 03:01:54;;;;;;;9.18;8.70;;;;;;;-0.29;100.00;102825.16;5067423;28;20150;-77
2023/12/17 03:04:19;;;;;;;3.45;3.25;;;;;;;0.36;100.00;102941.47;5068361;28;20041;-75
2023/12/17 03:06:45;;;;;;;20.00;18.02;;;;;;;0.32;100.00;102931.66;5068926;28;20052;-75
2023/12/17 03:09:13;;;;;;;0.43;0.43;;;;;;;0.23;100.00;102938.63;5067543;28;20477;-77
2023/12/17 03:11:39;;;;;;;0.70;0.70;;;;;;;0.08;100.00;102889.22;5067667;28;20524;-76
2023/12/17 03:14:04;;;;;;;0.98;0.98;;;;;;;0.28;100.00;102915.00;5049835;28;20171;-75
2023/12/17 03:16:31;;;;;;;2.15;2.05;;;;;;;-0.22;100.00;102813.66;5066351;28;20054;-74
2023/12/17 03:18:56;;;;;;;1.35;1.33;;;;;;;0.48;100.00;102938.97;5068153;28;20094;-75
2023/12/17 03:21:23;;;;;;;2.05;1.85;;;;;;;-0.13;100.00;102824.75;5066779;28;20611;-75
2023/12/17 03:23:50;;;;;;;3.88;3.67;;;;;;;-0.42;100.00;102817.19;5062795;28;20047;-74
2023/12/17 03:26:17;;;;;;;2.03;1.92;;;;;;;0.23;100.00;102920.56;5056994;28;20041;-76
2023/12/17 03:28:42;;;;;;;0.50;0.50;;;;;;;-0.72;100.00;102812.94;5074527;28;20048;-75
2023/12/17 03:31:15;;;;;;;5.32;5.03;;;;;;;0.01;100.00;102931.69;5067025;28;20036;-75
2023/12/17 03:33:45;;;;;;;16.83;15.32;;;;;;;-0.34;100.00;102835.88;5060706;28;20282;-74
2023/12/17 03:36:17;;;;;;;1.67;1.58;;;;;;;-0.07;100.00;102884.63;5070162;28;20549;-74
2023/12/17 03:38:43;;;;;;;2.97;2.88;;;;;;;-0.29;100.00;102812.25;5063489;28;20040;-75
2023/12/17 03:41:23;;;;;;;0.30;0.30;;;;;;;-0.34;100.00;102810.97;5059389;28;20106;-75
2023/12/17 03:43:54;;;;;;;2.05;1.95;;;;;;;-0.27;100.00;102818.44;5046107;28;20476;-75
2023/12/17 03:46:21;;;;;;;0.63;0.63;;;;;;;-0.32;100.00;102824.00;5057764;28;20044;-76
2023/12/17 03:48:46;;;;;;;7.32;6.95;;;;;;;0.30;100.00;102931.50;5062140;28;20419;-75
2023/12/17 03:51:12;;;;;;;0.20;0.20;;;;;;;0.27;100.00;102926.09;5063127;28;20141;-76
2023/12/17 03:53:38;;;;;;;4.90;3.90;;;;;;;-0.49;100.00;102827.78;5061969;28;20548;-75
2023/12/17 03:56:14;;;;;;;4.00;3.85;;;;;;;-0.48;100.00;102809.81;5061959;28;20837;-76
2023/12/17 03:58:41;;;;;;;0.85;0.85;;;;;;;0.15;100.00;102926.00;5061390;28;21205;-75
2023/12/17 04:01:08;;;;;;;0.85;0.85;;;;;;;-0.50;100.00;102811.38;5061238;28;20032;-76
2023/12/17 04:03:34;;;;;;;2.05;1.95;;;;;;;0.18;100.00;102915.91;5060884;28;20139;-76
2023/12/17 04:06:02;;;;;;;0.47;0.47;;;;;;;0.15;100.00;102915.66;5058101;28;20108;-75
2023/12/17 04:08:27;;;;;;;0.75;0.75;;;;;;;0.08;100.00;102912.47;5034323;28;20128;-76
2023/12/17 04:10:53;;;;;;;8.70;8.05;;;;;;;0.02;100.00;102905.09;5062164;28;20055;-75
2023/12/17 04:13:19;;;;;;;2.05;1.95;;;;;;;0.22;100.00;102890.38;5057059;28;20048;-75
2023/12/17 04:15:45;;;;;;;1.27;1.17;;;;;;;-0.07;100.00;102852.72;5062979;28;20069;-76
2023/12/17 04:18:10;;;;;;;1.40;1.30;;;;;;;-0.30;100.00;102787.25;5030796;28;20088;-78
2023/12/17 04:20:36;;;;;;;18.70;16.73;;;;;;;-0.38;100.00;102771.91;5054279;28;20071;-77
2023/12/17 04:23:02;;;;;;;0.85;0.85;;;;;;;-0.34;100.00;102786.88;5064087;28;20462;-76
2023/12/17 04:25:28;;;;;;;3.35;3.15;;;;;;;0.23;100.00;102876.66;5067051;28;20046;-76
2023/12/17 04:27:53;;;;;;;2.03;1.95;;;;;;;0.33;100.00;102892.16;5066020;28;20036;-75
2023/12/17 04:30:19;;;;;;;1.35;1.35;;;;;;;-0.27;100.00;102795.22;5068092;28;20510;-76
2023/12/17 04:32:44;;;;;;;0.85;0.60;;;;;;;-0.38;100.00;102782.22;5055725;28;20274;-75
2023/12/17 04:35:10;;;;;;;0.73;0.73;;;;;;;0.32;100.00;102895.50;5044183;28;20033;-76
2023/12/17 04:37:37;;;;;;;1.95;1.85;;;;;;;0.19;100.00;102878.13;5064707;28;20392;-77
2023/12/17 04:40:03;;;;;;;3.15;3.00;;;;;;;0.23;100.00;102899.91;5066670;28;20021;-77
2023/12/17 04:42:29;;;;;;;1.05;1.05;;;;;;;0.36;100.00;102890.72;5037330;28;20441;-75
2023/12/17 04:44:56;;;;;;;0.77;0.65;;;;;;;0.38;100.00;102907.22;5061302;28;20044;-77
2023/12/17 04:47:22;;;;;;;2.97;2.88;;;;;;;-0.18;100.00;102810.56;5062310;28;20059;-76
2023/12/17 04:49:47;;;;;;;13.55;12.50;;;;;;;0.54;100.00;102906.81;5064862;28;20060;-76
2023/12/17 04:52:14;;;;;;;0.60;0.60;;;;;;;0.02;100.00;102831.94;5061424;28;20097;-77
2023/12/17 04:54:39;;;;;;;9.93;9.38;;;;;;;-0.76;100.00;102738.69;5059205;28;20056;-77
2023/12/17 04:57:05;;;;;;;2.00;1.90;;;;;;;-0.35;100.00;102792.78;5059923;28;20059;-75
2023/12/17 04:59:30;;;;;;;2.45;2.35;;;;;;;-0.29;100.00;102801.03;5063964;28;20057;-76
2023/12/17 05:01:56;;;;;;;0.70;0.70;;;;;;;0.32;100.00;102914.47;5060763;28;20040;-76
2023/12/17 05:04:21;;;;;;;9.20;8.68;;;;;;;-0.36;100.00;102802.19;5062493;28;20503;-76
2023/12/17 05:06:47;;;;;;;0.60;0.60;;;;;;;-0.14;100.00;102827.19;5062220;28;20162;-76
2023/12/17 05:09:13;;;;;;;0.60;0.60;;;;;;;-0.28;100.00;102814.06;5060267;28;20163;-78
2023/12/17 05:11:38;;;;;;;2.05;1.85;;;;;;;0.29;100.00;102924.56;5061441;28;20056;-78
2023/12/17 05:14:04;;;;;;;1.42;1.38;;;;;;;-0.29;100.00;102806.19;5059497;28;20061;-77
2023/12/17 05:16:29;;;;;;;0.55;0.55;;;;;;;0.48;100.00;102911.47;5060745;28;20051;-78
2023/12/17 05:18:55;;;;;;;1.52;1.45;;;;;;;0.28;100.00;102904.69;5069931;28;20098;-76
2023/12/17 05:21:21;;;;;;;0.60;0.60;;;;;;;0.39;100.00;102921.03;5059231;28;20148;-77
2023/12/17 05:23:46;;;;;;;0.40;0.40;;;;;;;0.27;100.00;102856.38;5059042;28;20036;-76
2023/12/17 05:26:12;;;;;;;0.40;0.40;;;;;;;0.16;100.00;102847.78;5062983;28;20044;-77
2023/12/17 05:28:39;;;;;;;0.70;0.70;;;;;;;-0.14;100.00;102802.31;5058775;28;20485;-77
2023/12/17 05:31:06;;;;;;;1.30;1.27;;;;;;;0.64;100.00;102905.84;5057191;28;20102;-78
2023/12/17 05:33:32;;;;;;;1.05;1.05;;;;;;;0.77;100.00;102921.56;5055586;28;20048;-76
2023/12/17 05:35:57;;;;;;;0.68;0.68;;;;;;;0.75;100.00;102891.19;5058408;28;20059;-77
2023/12/17 05:38:23;;;;;;;1.85;1.75;;;;;;;0.18;100.00;102799.75;5063772;28;20040;-77
2023/12/17 05:40:48;;;;;;;1.40;0.73;;;;;;;0.24;100.00;102814.84;5037851;28;20045;-77
2023/12/17 05:43:14;;;;;;;1.88;1.77;;;;;;;0.18;100.00;102794.56;5034844;28;20062;-77
2023/12/17 05:45:39;;;;;;;0.60;0.60;;;;;;;0.32;100.00;102798.25;5057395;28;20103;-76
2023/12/17 05:48:08;;;;;;;4.22;2.25;;;;;;;0.93;100.00;102912.44;5060590;28;20563;-78
2023/12/17 05:50:35;;;;;;;1.88;1.77;;;;;;;0.80;100.00;102890.81;5063172;28;20076;-78
2023/12/17 05:53:00;;;;;;;0.22;0.22;;;;;;;0.87;100.00;102918.03;5043069;28;20116;-76
2023/12/17 05:55:26;;;;;;;8.77;8.18;;;;;;;0.98;100.00;102913.72;5061987;28;20185;-77
2023/12/17 05:57:52;;;;;;;1.25;1.15;;;;;;;0.26;100.00;102779.72;5038903;28;20033;-75
2023/12/17 06:00:18;;;;;;;1.23;1.23;;;;;;;1.07;100.00;102909.25;5063874;28;20043;-77
2023/12/17 06:02:43;;;;;;;0.40;0.40;;;;;;;0.45;100.00;102778.59;5066611;28;20182;-76
2023/12/17 06:05:09;;;;;;;1.70;1.60;;;;;;;1.05;100.00;102872.03;5061006;28;20037;-77
2023/12/17 06:07:34;;;;;;;7.68;7.25;;;;;;;0.46;100.00;102762.31;5060616;28;20048;-76
2023/12/17 06:10:00;;;;;;;2.55;2.45;;;;;;;1.26;100.00;102890.91;5058375;28;20116;-75
2023/12/17 06:12:26;;;;;;;9.52;9.00;;;;;;;1.10;100.00;102873.34;5061114;28;20097;-77
2023/12/17 06:14:51;;;;;;;5.30;5.00;;;;;;;0.49;100.00;102770.28;5058487;28;20151;-74
2023/12/17 06:17:17;;;;;;;0.43;0.43;;;;;;;1.23;100.00;102908.78;5061138;28;20499;-76
2023/12/17 06:19:44;;;;;;;0.30;0.30;;;;;;;1.29;100.00;102910.94;5056713;28;20132;-76
2023/12/17 06:22:11;;;;;;;0.60;0.60;;;;;;;1.31;100.00;102904.19;5040889;28;20037;-76
2023/12/17 06:24:37;;;;;;;0.50;0.50;;;;;;;0.97;100.00;102884.38;5061082;28;20049;-77
2023/12/17 06:27:03;;;;;;;1.42;1.42;;;;;;;0.57;100.00;102793.38;5059531;28;20131;-77
2023/12/17 06:29:29;;;;;;;0.30;0.30;;;;;;;0.97;100.00;102873.13;5059455;28;20043;-78
2023/12/17 06:31:56;;;;;;;1.40;1.30;;;;;;;1.26;100.00;102925.47;5061128;28;20052;-77
2023/12/17 06:34:21;;;;;;;0.75;0.75;;;;;;;1.23;100.00;102914.84;5029511;28;20127;-74
2023/12/17 06:36:47;;;;;;;1.48;1.40;;;;;;;0.60;100.00;102791.03;5062223;28;20479;-77
2023/12/17 06:39:12;;;;;;;0.40;0.40;;;;;;;1.11;100.00;102881.97;5057854;28;20037;-75
2023/12/17 06:41:48;;;;;;;0.90;0.90;;;;;;;1.35;100.00;102908.84;5055932;28;20144;-76
2023/12/17 06:44:15;;;;;;;0.40;0.40;;;;;;;1.12;100.00;102857.91;5034320;28;20622;-75
2023/12/17 06:46:40;;;;;;;0.50;0.50;;;;;;;0.85;100.00;102798.13;5064278;28;20067;-77
2023/12/17 06:49:07;;;;;;;0.52;0.52;;;;;;;0.68;100.00;102777.81;5056619;28;20064;-77
2023/12/17 06:51:33;;;;;;;0.50;0.50;;;;;;;1.34;100.00;102876.00;5057543;28;20058;-77
2023/12/17 06:53:58;;;;;;;1.67;1.58;;;;;;;1.03;100.00;102784.06;5064708;28;20036;-78
2023/12/17 06:56:25;;;;;;;0.95;0.95;;;;;;;1.14;100.00;102802.06;5064529;28;20511;-76
2023/12/17 06:58:51;;;;;;;1.48;1.38;;;;;;;1.04;100.00;102780.66;5065408;28;20147;-76
2023/12/17 07:01:18;;;;;;;0.50;0.50;;;;;;;1.72;100.00;102884.09;5065012;28;20024;-74
2023/12/17 07:03:44;;;;;;;1.13;1.13;;;;;;;1.29;100.00;102818.75;5063755;28;20111;-76
2023/12/17 07:06:11;;;;;;;1.23;1.13;;;;;;;1.01;100.00;102766.63;5066005;28;20615;-75
2023/12/17 07:08:37;;;;;;;0.45;0.45;;;;;;;1.59;100.00;102874.53;5047950;28;20048;-77
2023/12/17 07:11:03;;;;;;;0.40;0.40;;;;;;;1.66;100.00;102874.22;5065596;28;20135;-75
2023/12/17 07:13:28;;;;;;;0.40;0.40;;;;;;;1.31;100.00;102791.34;5064256;28;20047;-76
2023/12/17 07:15:54;;;;;;;0.60;0.60;;;;;;;1.52;100.00;102871.34;5049274;28;20393;-76
2023/12/17 07:18:20;;;;;;;0.40;0.40;;;;;;;1.17;100.00;102787.69;5065243;28;20084;-78
2023/12/17 07:20:47;;;;;;;2.80;2.65;;;;;;;1.74;100.00;102887.72;5065815;28;20538;-76
2023/12/17 07:23:13;;;;;;;0.70;0.70;;;;;;;1.74;100.00;102879.06;5062839;28;20036;-75
2023/12/17 07:25:39;;;;;;;2.22;2.13;;;;;;;1.39;100.00;102883.34;5048070;28;20388;-74
2023/12/17 07:28:04;;;;;;;12.32;11.57;;;;;;;1.19;100.00;102805.88;5050274;28;20044;-75
2023/12/17 07:30:31;;;;;;;0.63;0.52;;;;;;;1.11;100.00;102782.03;5062792;28;20631;-76
2023/12/17 07:32:57;;;;;;;0.30;0.30;;;;;;;1.05;100.00;102776.38;5058971;28;20052;-77
2023/12/17 07:35:24;;;;;;;6.13;5.75;;;;;;;1.23;100.00;102803.66;5063754;28;20052;-77
2023/12/17 07:37:50;;;;;;;0.70;0.70;;;;;;;1.14;100.00;102766.75;5065447;28;20128;-76
2023/12/17 07:40:16;;;;;;;0.70;0.70;;;;;;;1.23;100.00;102779.50;5064152;28;20115;-77
2023/12/17 07:42:42;;;;;;;6.43;6.05;;;;;;;2.08;100.00;102867.84;5066172;28;20072;-75
2023/12/17 07:45:08;;;;;;;0.30;0.30;;;;;;;2.11;100.00;102860.31;5033560;28;20134;-77
2023/12/17 07:47:34;;;;;;;3.22;3.08;;;;;;;2.26;100.00;102860.53;5063263;28;20528;-76
2023/12/17 07:49:59;;;;;;;1.00;0.60;;;;;;;2.24;100.00;102869.88;5063712;28;20137;-76
2023/12/17 07:52:27;;;;;;;0.40;0.40;;;;;;;2.18;100.00;102864.25;5070480;28;20025;-77
2023/12/17 07:54:53;;;;;;;1.75;0.88;;;;;;;2.11;100.00;102867.19;5067261;28;20051;-77
2023/12/17 07:57:19;;;;;;;7.60;6.88;;;;;;;2.06;100.00;102860.72;5068077;28;20052;-77
2023/12/17 07:59:46;;;;;;;0.38;0.38;;;;;;;1.45;100.00;102743.19;5064653;28;20037;-77
2023/12/17 08:02:15;;;;;;;0.73;0.73;;;;;;;1.71;100.00;102876.22;5066969;28;20044;-76
2023/12/17 08:04:42;;;;;;;1.05;0.95;;;;;;;1.39;100.00;102771.22;5066637;28;20052;-75
2023/12/17 08:07:10;;;;;;;0.60;0.60;;;;;;;1.79;100.00;102854.41;5055252;28;20043;-76
2023/12/17 08:09:35;;;;;;;3.17;2.95;;;;;;;1.57;100.00;102850.22;5062686;28;20052;-79
2023/12/17 08:12:01;;;;;;;0.38;0.38;;;;;;;1.23;100.00;102766.56;5063140;28;20454;-75
2023/12/17 08:14:28;;;;;;;1.60;1.50;;;;;;;1.82;100.00;102889.19;5064829;28;20848;-77
2023/12/17 08:16:53;;;;;;;1.95;1.85;;;;;;;1.38;100.00;102867.69;5062215;28;20506;-76
2023/12/17 08:19:19;;;;;;;12.75;7.28;;;;;;;1.58;100.00;102877.00;5057443;28;20044;-74
2023/12/17 08:21:44;;;;;;;1.00;1.00;;;;;;;1.79;100.00;102870.84;5067326;28;20040;-76
2023/12/17 08:24:11;;;;;;;0.45;0.45;;;;;;;1.31;100.00;102796.50;5064154;28;20048;-76
2023/12/17 08:26:36;;;;;;;1.65;1.55;;;;;;;1.06;100.00;102770.47;5062904;28;20137;-77
2023/12/17 08:29:03;;;;;;;1.10;1.05;;;;;;;0.94;100.00;102741.09;5064753;28;20687;-78
2023/12/17 08:31:29;;;;;;;0.63;0.43;;;;;;;1.65;100.00;102838.75;5068049;28;20043;-77
2023/12/17 08:33:54;;;;;;;2.60;2.50;;;;;;;1.51;100.00;102800.59;5064815;28;20068;-76
2023/12/17 08:36:23;;;;;;;0.50;0.50;;;;;;;1.94;100.00;102867.59;5064486;28;20510;-77
2023/12/17 08:38:49;;;;;;;0.50;0.50;;;;;;;1.88;100.00;102821.44;5059896;28;20080;-75
2023/12/17 08:41:15;;;;;;;1.33;1.30;;;;;;;1.82;100.00;102764.94;5046805;28;20094;-75
2023/12/17 08:43:40;;;;;;;2.10;1.98;;;;;;;1.78;100.00;102752.59;5055101;28;20052;-78
2023/12/17 08:46:06;;;;;;;0.73;0.73;;;;;;;1.70;100.00;102727.81;5064875;28;20029;-74
2023/12/17 08:48:32;;;;;;;0.45;0.45;;;;;;;1.82;100.00;102748.50;5039998;28;21048;-77
2023/12/17 08:50:57;;;;;;;7.32;6.78;;;;;;;2.44;100.00;102841.94;5056309;28;20141;-77
2023/12/17 08:53:23;;;;;;;2.10;2.00;;;;;;;2.67;100.00;102835.78;5062737;28;20044;-76
2023/12/17 08:55:49;;;;;;;0.68;0.65;;;;;;;2.65;100.00;102840.00;5061876;28;20040;-77
2023/12/17 08:58:16;;;;;;;1.17;1.15;;;;;;;0.83;100.00;102490.47;5063765;28;20044;-76
2023/12/17 09:00:44;;;;;;;1.50;1.40;;;;;;;1.23;100.00;102529.56;5067183;28;20071;-76
2023/12/17 09:03:10;;;;;;;2.72;2.60;;;;;;;2.30;100.00;102716.59;5063472;28;20093;-76
2023/12/17 09:05:35;;;;;;;0.77;0.77;;;;;;;2.23;100.00;102689.34;5060420;28;20044;-77
2023/12/17 09:08:02;;;;;;;1.00;1.00;;;;;;;2.94;100.00;102782.41;5036409;28;20396;-77
2023/12/17 09:10:27;;;;;;;4.22;4.03;;;;;;;2.71;100.00;102805.00;5066991;28;20033;-76
2023/12/17 09:12:54;;;;;;;8.13;6.38;;;;;;;2.60;100.00;102818.00;5066541;28;20031;-77
2023/12/17 09:15:20;;;;;;;1.35;1.25;;;;;;;1.86;100.00;102683.25;5066318;28;20040;-78
2023/12/17 09:17:46;;;;;;;0.40;0.40;;;;;;;2.49;100.00;102799.13;5064007;28;20052;-78
2023/12/17 09:20:13;;;;;;;2.85;2.75;;;;;;;2.57;100.00;102815.19;5059063;28;20044;-77
2023/12/17 09:22:41;;;;;;;0.70;0.70;;;;;;;2.21;100.00;102714.25;5040699;28;20433;-76
2023/12/17 09:25:07;;;;;;;0.32;0.32;;;;;;;1.64;100.00;102720.50;5059792;28;20036;-77
2023/12/17 09:27:32;;;;;;;0.50;0.50;;;;;;;1.53;100.00;102725.69;5063464;28;20052;-77
2023/12/17 09:29:58;;;;;;;0.32;0.32;;;;;;;1.55;100.00;102703.41;5036679;28;20109;-77
2023/12/17 09:32:23;;;;;;;0.52;0.52;;;;;;;2.15;100.00;102800.94;5062960;28;20040;-76
2023/12/17 09:34:49;;;;;;;12.10;11.30;;;;;;;1.96;100.00;102806.47;5061883;28;20043;-76
2023/12/17 09:37:15;;;;;;;5.07;4.80;;;;;;;2.09;100.00;102809.19;5061767;28;20078;-76
2023/12/17 09:39:40;;;;;;;2.20;1.55;;;;;;;1.96;100.00;102804.78;5063924;28;20455;-77
2023/12/17 09:42:06;;;;;;;0.60;0.60;;;;;;;2.10;100.00;102795.44;5061507;28;20051;-75
2023/12/17 09:44:32;;;;;;;1.38;1.27;;;;;;;1.87;100.00;102823.16;5057754;28;20099;-77
2023/12/17 09:46:59;;;;;;;0.80;0.75;;;;;;;1.99;100.00;102789.50;5045886;28;20080;-76
2023/12/17 09:49:24;;;;;;;3.67;3.47;;;;;;;1.57;100.00;102709.56;5060538;28;20376;-74
2023/12/17 09:52:12;;;;;;;10.13;9.65;;;;;;;1.54;100.00;102720.59;5060145;28;20181;-77
2023/12/17 09:54:39;;;;;;;1.80;1.70;;;;;;;2.18;100.00;102793.41;5040529;28;20259;-75
2023/12/17 09:57:06;;;;;;;0.70;0.70;;;;;;;2.29;100.00;102798.59;5041263;28;20119;-77
2023/12/17 09:59:32;;;;;;;0.85;0.85;;;;;;;2.30;100.00;102804.66;5057945;28;20500;-77
2023/12/17 10:01:58;;;;;;;2.33;2.22;;;;;;;1.93;100.00;102720.84;5062690;28;20135;-76
2023/12/17 10:04:24;;;;;;;1.45;1.40;;;;;;;1.78;100.00;102752.59;5065100;28;20503;-75
2023/12/17 10:06:51;;;;;;;0.88;0.88;;;;;;;2.25;100.00;102798.25;5060050;28;20119;-76
2023/12/17 10:09:16;;;;;;;8.77;5.75;;;;;;;2.24;100.00;102794.75;5057202;28;20094;-75
2023/12/17 10:11:42;;;;;;;1.58;1.48;;;;;;;1.97;100.00;102762.59;5065808;28;20044;-73
2023/12/17 10:14:24;;;;;;;0.40;0.40;;;;;;;1.45;100.00;102681.13;5064035;28;20052;-77
2023/12/17 10:16:53;;;;;;;0.85;0.85;;;;;;;1.95;100.00;102752.91;5063841;28;20051;-76
2023/12/17 10:19:20;;;;;;;2.42;2.30;;;;;;;1.05;100.00;102681.66;5061971;28;20064;-74
2023/12/17 10:21:45;;;;;;;1.17;1.17;;;;;;;1.02;100.00;102618.47;5068553;28;20044;-78
2023/12/17 10:24:11;;;;;;;0.80;0.80;;;;;;;1.66;100.00;102752.59;5065655;28;20044;-75
2023/12/17 10:26:44;;;;;;;0.65;0.65;;;;;;;2.19;100.00;102767.63;5042012;28;20053;-76
2023/12/17 10:29:15;;;;;;;0.63;0.63;;;;;;;2.18;100.00;102759.72;5060296;28;20076;-80
2023/12/17 10:31:42;;;;;;;0.45;0.45;;;;;;;2.11;100.00;102761.91;5060122;28;20068;-77
2023/12/17 10:34:22;;;;;;;0.43;0.40;;;;;;;1.59;100.00;102664.03;5058912;28;20628;-78
2023/12/17 10:36:48;;;;;;;5.68;5.35;;;;;;;2.36;100.00;102719.59;5063277;28;20105;-77
2023/12/17 10:39:15;;;;;;;0.35;0.35;;;;;;;2.82;100.00;102751.34;5062625;28;20056;-77
2023/12/17 10:41:42;;;;;;;4.53;4.30;;;;;;;2.94;100.00;102738.31;5059345;28;20052;-76
2023/12/17 10:44:12;;;;;;;4.35;4.15;;;;;;;2.32;100.00;102629.53;5063775;28;20052;-74
2023/12/17 10:46:42;;;;;;;0.47;0.47;;;;;;;2.97;100.00;102730.72;5061917;28;20048;-75
2023/12/17 10:49:07;;;;;;;0.52;0.52;;;;;;;3.17;100.00;102733.00;5061747;28;20562;-75
2023/12/17 10:51:37;;;;;;;5.03;4.72;;;;;;;3.49;100.00;102716.09;5062940;28;20480;-75
2023/12/17 10:54:02;;;;;;;0.30;0.30;;;;;;;3.22;100.00;102709.06;5065083;28;20075;-75
2023/12/17 10:56:33;;;;;;;0.40;0.40;;;;;;;3.46;100.00;102689.03;5045707;28;20041;-74
2023/12/17 10:58:59;;;;;;;0.93;0.93;;;;;;;3.66;100.00;102705.91;5064464;28;20048;-76
2023/12/17 11:01:27;;;;;;;0.40;0.40;;;;;;;3.80;100.00;102712.91;5065767;28;20032;-75
2023/12/17 11:03:52;;;;;;;0.57;0.57;;;;;;;3.23;100.00;102602.81;5068359;28;20072;-74
2023/12/17 11:06:18;;;;;;;0.43;0.43;;;;;;;3.19;100.00;102689.00;5071168;28;20088;-74
2023/12/17 11:08:43;;;;;;;6.43;6.13;;;;;;;3.06;100.00;102686.38;5066661;28;20032;-77
2023/12/17 11:11:10;;;;;;;0.73;0.73;;;;;;;2.59;100.00;102593.34;5067899;28;20916;-76
2023/12/17 11:13:36;;;;;;;1.40;1.30;;;;;;;3.28;100.00;102688.72;5065787;28;20028;-75
2023/12/17 11:16:24;;;;;;;2.35;2.25;;;;;;;3.29;100.00;102703.47;5060850;28;20082;-75
2023/12/17 11:18:53;;;;;;;3.40;3.20;;;;;;;2.63;100.00;102584.97;5034052;28;20153;-76
2023/12/17 11:21:18;;;;;;;0.80;0.80;;;;;;;2.24;100.00;102600.47;5067962;28;20084;-75